Time;durP1;ratioP1;P1;durP2;ratioP2;P2;SDS_P1;SDS_P2;PMS_P1;PMS_P2;Temp;Humidity;BMP_temperature;BMP_pressure;BME280_temperature;BME280_humidity;BME280_pressure;Samples;Min_cycle;Max_cycle;Signal;HPM_P1;HPM_P2
2024/02/09 00:00:10;;;;;;;9.27;5.53;;;2.40;99.90;;;;;;5058796;28;20040;-74
2024/02/09 00:02:36;;;;;;;9.77;5.82;;;2.30;99.90;;;;;;5059714;28;20038;-74
2024/02/09 00:05:05;;;;;;;10.00;6.32;;;2.50;99.90;;;;;;5059126;28;20396;-74
2024/02/09 00:07:31;;;;;;;9.20;5.97;;;2.50;99.90;;;;;;5076605;28;20574;-74
2024/02/09 00:09:58;;;;;;;10.35;6.03;;;2.60;99.90;;;;;;5076555;28;20051;-74
2024/02/09 00:12:24;;;;;;;12.02;5.75;;;2.60;99.90;;;;;;5076523;28;20055;-74
2024/02/09 00:14:50;;;;;;;10.32;6.03;;;2.70;99.90;;;;;;5077050;28;20492;-74
2024/02/09 00:17:16;;;;;;;6.30;4.53;;;2.30;99.90;;;;;;5042700;28;20082;-73
2024/02/09 00:19:42;;;;;;;9.25;4.72;;;2.40;99.90;;;;;;5076489;28;20041;-74
2024/02/09 00:22:11;;;;;;;7.22;4.93;;;2.60;99.90;;;;;;5076907;28;20415;-74
2024/02/09 00:24:38;;;;;;;8.48;4.90;;;2.60;99.90;;;;;;5058591;28;20037;-74
2024/02/09 00:27:04;;;;;;;7.57;4.88;;;2.50;99.90;;;;;;5059448;28;20071;-74
2024/02/09 00:29:30;;;;;;;7.47;4.82;;;2.50;99.90;;;;;;5059124;28;20033;-74
2024/02/09 00:31:57;;;;;;;10.32;5.15;;;2.20;99.90;;;;;;5077145;28;20040;-74
2024/02/09 00:34:22;;;;;;;6.90;4.40;;;2.60;99.90;;;;;;5076474;28;20120;-74
2024/02/09 00:36:49;;;;;;;6.65;4.97;;;2.30;99.90;;;;;;5076490;28;20079;-74
2024/02/09 00:39:17;;;;;;;6.50;4.80;;;2.50;99.90;;;;;;5058021;28;20040;-74
2024/02/09 00:41:43;;;;;;;6.22;4.45;;;2.60;99.90;;;;;;5075852;28;20123;-74
2024/02/09 00:44:08;;;;;;;7.20;4.10;;;2.30;99.90;;;;;;5075848;28;20448;-74
2024/02/09 00:46:40;;;;;;;5.13;3.60;;;2.40;99.90;;;;;;5075676;28;20082;-74
2024/02/09 00:49:07;;;;;;;7.05;4.30;;;2.50;99.90;;;;;;5075550;28;20132;-74
2024/02/09 00:51:33;;;;;;;5.97;4.38;;;2.40;99.90;;;;;;5040627;28;20044;-74
2024/02/09 00:54:00;;;;;;;7.85;4.78;;;2.60;99.90;;;;;;5057245;28;20059;-74
2024/02/09 00:56:26;;;;;;;7.30;4.50;;;2.60;99.90;;;;;;5076063;28;20436;-74
2024/02/09 00:58:54;;;;;;;5.90;3.72;;;2.60;99.90;;;;;;5059125;28;20041;-74
2024/02/09 01:01:20;;;;;;;5.80;3.88;;;2.30;99.90;;;;;;5059032;28;20431;-74
2024/02/09 01:03:46;;;;;;;5.63;3.88;;;2.40;99.90;;;;;;5076463;28;20119;-74
2024/02/09 01:06:12;;;;;;;6.18;3.88;;;2.60;99.90;;;;;;5059575;28;20040;-74
2024/02/09 01:08:41;;;;;;;5.97;3.88;;;2.30;99.90;;;;;;5041575;28;20082;-74
2024/02/09 01:11:09;;;;;;;6.32;3.85;;;2.40;99.90;;;;;;5058350;28;20036;-74
2024/02/09 02:46:26;;;;;;;5.70;3.30;;;2.50;99.90;;;;;;5073242;28;20044;-73
2024/02/09 03:05:24;;;;;;;6.57;3.55;;;2.40;99.90;;;;;;5076497;28;20488;-73
2024/02/09 03:07:56;;;;;;;6.45;4.50;;;2.80;99.90;;;;;;5077486;28;20043;-74
2024/02/09 03:10:22;;;;;;;5.05;3.63;;;2.60;99.90;;;;;;5042699;28;20040;-74
2024/02/09 03:12:48;;;;;;;6.25;3.90;;;2.70;99.90;;;;;;5077944;28;20120;-74
2024/02/09 03:15:15;;;;;;;5.82;3.95;;;2.70;99.90;;;;;;5076721;28;20025;-74
2024/02/09 03:17:41;;;;;;;7.22;4.32;;;2.80;99.90;;;;;;5042265;28;20082;-74
2024/02/09 03:20:08;;;;;;;5.65;3.33;;;2.70;99.90;;;;;;5076548;28;20029;-73
2024/02/09 03:22:35;;;;;;;7.50;4.10;;;2.60;99.90;;;;;;5021554;28;1088178;-74
2024/02/09 03:25:03;;;;;;;6.15;3.95;;;2.40;99.90;;;;;;5078368;28;20512;-74
2024/02/09 03:27:33;;;;;;;6.93;3.80;;;2.50;99.90;;;;;;5078530;28;20492;-74
2024/02/09 03:30:04;;;;;;;6.97;4.20;;;2.90;99.90;;;;;;5078100;28;20397;-74
2024/02/09 03:32:32;;;;;;;5.85;3.80;;;2.80;99.90;;;;;;5077778;28;20442;-74
2024/02/09 03:34:58;;;;;;;6.72;3.95;;;2.50;99.90;;;;;;5079008;28;20047;-74
2024/02/09 03:37:26;;;;;;;7.53;3.97;;;2.90;99.90;;;;;;5079432;28;20040;-73
2024/02/09 03:39:58;;;;;;;4.95;3.50;;;2.60;99.90;;;;;;5078203;28;20111;-74
2024/02/09 03:42:23;;;;;;;5.25;3.58;;;2.90;99.90;;;;;;5078826;28;20041;-74
2024/02/09 03:44:50;;;;;;;6.28;3.90;;;2.60;99.90;;;;;;5079885;28;20039;-74
2024/02/09 03:47:19;;;;;;;5.10;3.30;;;2.80;99.90;;;;;;5059516;28;20047;-74
2024/02/09 03:49:49;;;;;;;5.20;3.85;;;2.60;99.90;;;;;;5042812;28;20047;-73
2024/02/09 03:52:20;;;;;;;5.65;3.97;;;2.80;99.90;;;;;;5044425;28;20040;-74
2024/02/09 03:54:46;;;;;;;5.53;3.50;;;2.70;99.90;;;;;;5079321;28;20072;-74
2024/02/09 03:57:12;;;;;;;5.78;3.72;;;2.90;99.90;;;;;;5079289;28;20093;-74
2024/02/09 03:59:39;;;;;;;5.03;3.40;;;2.90;99.90;;;;;;5077251;28;20045;-74
2024/02/09 04:02:06;;;;;;;6.57;3.58;;;2.90;99.90;;;;;;5077314;28;20519;-74
2024/02/09 04:04:32;;;;;;;5.88;3.80;;;2.90;99.90;;;;;;5059840;28;20496;-74
2024/02/09 04:06:58;;;;;;;5.80;3.42;;;2.80;99.90;;;;;;5059317;28;20041;-74
2024/02/09 04:09:24;;;;;;;6.13;3.33;;;2.80;99.90;;;;;;5078050;28;20038;-74
2024/02/09 04:11:50;;;;;;;6.85;3.90;;;2.80;99.90;;;;;;5079080;28;20161;-74
2024/02/09 04:14:16;;;;;;;4.93;3.17;;;2.70;99.90;;;;;;5078199;28;20036;-74
2024/02/09 04:16:42;;;;;;;5.88;3.63;;;2.60;99.90;;;;;;5058836;28;20080;-74
2024/02/09 04:19:08;;;;;;;5.88;3.38;;;3.00;99.90;;;;;;5075576;28;20041;-74
2024/02/09 04:21:34;;;;;;;6.75;3.85;;;2.60;99.90;;;;;;5068482;28;20108;-74
2024/02/09 04:24:00;;;;;;;6.53;3.90;;;2.90;99.90;;;;;;5068403;28;20028;-74
2024/02/09 04:26:25;;;;;;;5.00;3.35;;;2.60;99.90;;;;;;5076500;28;20400;-74
2024/02/09 04:28:53;;;;;;;7.93;4.40;;;2.70;99.90;;;;;;5076827;28;20036;-74
2024/02/09 04:31:19;;;;;;;7.68;4.43;;;2.60;99.90;;;;;;5058546;28;20428;-74
2024/02/09 04:33:45;;;;;;;7.25;4.03;;;2.70;99.90;;;;;;5060218;28;20037;-74
2024/02/09 04:36:10;;;;;;;6.38;4.22;;;3.10;99.90;;;;;;5059759;28;20044;-74
2024/02/09 04:38:40;;;;;;;8.00;3.83;;;3.00;99.90;;;;;;5058472;28;20500;-74
2024/02/09 04:41:07;;;;;;;6.70;3.70;;;2.60;99.90;;;;;;5077496;28;20041;-74
2024/02/09 04:43:32;;;;;;;5.35;3.40;;;2.70;99.90;;;;;;5078976;28;20045;-74
2024/02/09 04:45:59;;;;;;;7.80;4.07;;;2.60;99.90;;;;;;5059529;28;20040;-74
2024/02/09 04:48:24;;;;;;;6.75;3.95;;;2.70;99.90;;;;;;5076666;28;20068;-74
2024/02/09 04:50:50;;;;;;;5.50;3.42;;;2.90;99.90;;;;;;5075701;28;20051;-74
2024/02/09 04:53:15;;;;;;;6.13;3.80;;;2.70;99.90;;;;;;5072214;28;20032;-74
2024/02/09 04:55:42;;;;;;;5.78;3.75;;;2.80;99.90;;;;;;5076637;28;20036;-74
2024/02/09 04:58:08;;;;;;;7.43;4.57;;;3.00;99.90;;;;;;5079065;28;20040;-74
2024/02/09 05:00:34;;;;;;;10.70;5.40;;;3.00;99.90;;;;;;5078289;28;20040;-74
2024/02/09 05:03:00;;;;;;;10.98;6.13;;;3.10;99.90;;;;;;5076637;28;20084;-74
2024/02/09 05:05:26;;;;;;;10.98;5.90;;;2.90;99.90;;;;;;5076257;28;20037;-74
2024/02/09 05:07:53;;;;;;;10.35;5.32;;;2.70;99.90;;;;;;5057530;28;20040;-73
2024/02/09 05:10:20;;;;;;;10.70;6.60;;;2.70;99.90;;;;;;5056877;28;20064;-73
2024/02/09 05:12:46;;;;;;;13.05;7.18;;;2.90;99.90;;;;;;5058051;28;20052;-74
2024/02/09 05:15:12;;;;;;;18.17;10.40;;;3.10;99.90;;;;;;5077152;28;20037;-74
2024/02/09 05:17:39;;;;;;;19.80;9.88;;;2.80;99.90;;;;;;5057996;28;20048;-74
2024/02/09 05:20:06;;;;;;;19.33;9.95;;;2.70;99.90;;;;;;5057275;28;20503;-74
2024/02/09 05:22:31;;;;;;;17.98;10.80;;;3.10;99.90;;;;;;5058919;28;20086;-74
2024/02/09 05:24:57;;;;;;;21.05;11.80;;;2.80;99.90;;;;;;5058438;28;20037;-74
2024/02/09 05:27:23;;;;;;;15.38;8.10;;;2.70;99.90;;;;;;5075404;28;20033;-74
2024/02/09 05:29:48;;;;;;;12.70;6.95;;;3.20;99.90;;;;;;5075132;28;20036;-73
2024/02/09 05:32:14;;;;;;;12.40;7.38;;;2.80;99.90;;;;;;5074946;28;20074;-74
2024/02/09 05:34:46;;;;;;;11.82;7.50;;;3.20;99.90;;;;;;5074753;28;20033;-74
2024/02/09 05:37:12;;;;;;;11.35;7.25;;;3.20;99.90;;;;;;5074740;28;20064;-73
2024/02/09 05:39:45;;;;;;;9.63;6.05;;;3.10;99.90;;;;;;5057324;28;20037;-74
2024/02/09 05:42:10;;;;;;;11.50;7.30;;;2.90;99.90;;;;;;5048829;28;20036;-73
2024/02/09 05:44:36;;;;;;;15.13;7.68;;;2.90;99.90;;;;;;5074653;28;20097;-74
2024/02/09 05:47:02;;;;;;;16.40;8.48;;;2.90;99.90;;;;;;5076401;28;20037;-73
2024/02/09 05:49:28;;;;;;;19.83;9.15;;;2.90;99.90;;;;;;5075853;28;20036;-74
2024/02/09 05:51:53;;;;;;;13.63;6.63;;;3.20;99.90;;;;;;5076338;28;20040;-74
2024/02/09 05:54:19;;;;;;;10.95;5.93;;;2.90;99.90;;;;;;5076296;28;20047;-73
2024/02/09 05:56:46;;;;;;;9.73;5.88;;;3.30;99.90;;;;;;5075085;28;20043;-74
2024/02/09 05:59:14;;;;;;;10.20;6.15;;;2.90;99.90;;;;;;5057285;28;20511;-74
2024/02/09 06:01:40;;;;;;;9.05;5.60;;;2.90;99.90;;;;;;5058829;28;20482;-73
2024/02/09 06:04:05;;;;;;;8.60;5.20;;;3.40;99.90;;;;;;5075997;28;20037;-74
2024/02/09 06:06:31;;;;;;;7.63;5.22;;;3.00;99.90;;;;;;5075199;28;20040;-74
2024/02/09 06:08:56;;;;;;;10.77;5.80;;;3.20;99.90;;;;;;5056890;28;20039;-73
2024/02/09 06:11:22;;;;;;;11.10;6.35;;;3.10;99.90;;;;;;5076219;28;20527;-74
2024/02/09 06:13:48;;;;;;;13.52;7.47;;;3.20;99.90;;;;;;5076269;28;20060;-73
2024/02/09 06:16:15;;;;;;;15.50;8.48;;;3.00;99.90;;;;;;5075013;28;20040;-74
2024/02/09 06:18:45;;;;;;;20.48;10.00;;;3.10;99.90;;;;;;5075130;28;20055;-74
2024/02/09 06:21:13;;;;;;;18.05;8.25;;;3.40;99.90;;;;;;5075753;28;20036;-74
2024/02/09 06:23:40;;;;;;;19.95;10.20;;;3.20;99.90;;;;;;5057245;28;20421;-74
2024/02/09 06:26:08;;;;;;;24.67;11.80;;;3.30;99.90;;;;;;5074507;28;20096;-74
2024/02/09 06:28:34;;;;;;;25.88;12.15;;;3.30;99.90;;;;;;5039920;28;20036;-74
2024/02/09 06:31:00;;;;;;;28.27;14.05;;;3.40;99.90;;;;;;5058187;28;20100;-74
2024/02/09 06:33:26;;;;;;;31.15;16.85;;;3.30;99.90;;;;;;5075977;28;20395;-74
2024/02/09 06:35:51;;;;;;;34.60;17.60;;;3.50;99.90;;;;;;5057960;28;20047;-74
2024/02/09 06:38:17;;;;;;;35.35;19.02;;;3.20;99.90;;;;;;5075187;28;20044;-74
2024/02/09 06:40:43;;;;;;;35.65;18.70;;;3.40;99.90;;;;;;5076445;28;20588;-74
2024/02/09 06:43:09;;;;;;;38.70;20.00;;;3.20;99.90;;;;;;5076267;28;20050;-74
2024/02/09 06:45:35;;;;;;;42.65;21.15;;;3.50;99.90;;;;;;5075858;28;20040;-74
2024/02/09 06:48:05;;;;;;;43.35;20.40;;;3.20;99.90;;;;;;5057051;28;20043;-74
2024/02/09 06:50:34;;;;;;;36.60;19.33;;;3.40;99.90;;;;;;5057246;28;20115;-74
2024/02/09 06:53:06;;;;;;;34.22;17.58;;;3.70;99.90;;;;;;5077106;28;20032;-74
2024/02/09 06:55:36;;;;;;;28.03;14.40;;;3.30;99.90;;;;;;5058467;28;20144;-74
2024/02/09 06:58:02;;;;;;;25.10;13.00;;;3.50;99.90;;;;;;5056771;28;20830;-74
2024/02/09 07:00:28;;;;;;;21.00;12.25;;;3.60;99.90;;;;;;5074466;28;20111;-74
2024/02/09 07:02:55;;;;;;;19.92;10.95;;;3.30;99.90;;;;;;5074736;28;20118;-74
2024/02/09 07:05:22;;;;;;;21.45;10.73;;;3.80;99.90;;;;;;5057621;28;20048;-74
2024/02/09 07:07:49;;;;;;;20.27;11.18;;;3.40;99.90;;;;;;5058602;28;20112;-74
2024/02/09 07:10:22;;;;;;;29.05;12.20;;;3.70;99.90;;;;;;5058283;28;20495;-74
2024/02/09 07:12:48;;;;;;;26.35;11.93;;;3.70;99.90;;;;;;5056559;28;20119;-74
2024/02/09 07:15:14;;;;;;;27.80;14.02;;;3.60;99.90;;;;;;5075449;28;20068;-74
2024/02/09 07:17:40;;;;;;;31.10;14.65;;;3.60;99.90;;;;;;5073908;28;20052;-74
2024/02/09 07:20:07;;;;;;;31.23;14.32;;;3.50;99.90;;;;;;5075140;28;20048;-74
2024/02/09 07:22:35;;;;;;;29.60;15.00;;;3.90;99.90;;;;;;5056932;28;20063;-74
2024/02/09 07:25:01;;;;;;;36.95;17.17;;;3.70;99.90;;;;;;5074227;28;20043;-74
2024/02/09 07:27:28;;;;;;;33.03;16.55;;;3.40;99.90;;;;;;5075522;28;20036;-74
2024/02/09 07:29:54;;;;;;;30.70;15.65;;;3.70;99.90;;;;;;5076168;28;20044;-74
2024/02/09 07:32:20;;;;;;;27.40;13.73;;;3.50;99.90;;;;;;5057243;28;20033;-74
2024/02/09 07:34:46;;;;;;;25.10;13.48;;;4.00;99.90;;;;;;5078190;28;20400;-74
2024/02/09 07:37:13;;;;;;;29.27;13.70;;;3.70;99.90;;;;;;5061282;28;20123;-74
2024/02/09 07:39:39;;;;;;;25.83;13.32;;;3.90;99.90;;;;;;5058380;28;20036;-73
2024/02/09 07:42:05;;;;;;;22.13;12.40;;;4.10;99.90;;;;;;5056632;28;20065;-74
2024/02/09 07:44:31;;;;;;;19.08;11.50;;;3.70;99.90;;;;;;5040479;28;20090;-74
2024/02/09 07:46:57;;;;;;;18.08;10.32;;;4.20;99.90;;;;;;5039899;28;20036;-73
2024/02/09 07:49:26;;;;;;;17.05;9.05;;;3.80;99.90;;;;;;5056596;28;20033;-72
2024/02/09 07:51:52;;;;;;;13.35;7.60;;;3.70;99.90;;;;;;5056410;28;20042;-73
2024/02/09 07:54:18;;;;;;;13.43;7.10;;;3.80;99.90;;;;;;5074425;28;20032;-73
2024/02/09 07:56:44;;;;;;;14.23;8.10;;;3.90;99.90;;;;;;5074387;28;20051;-73
2024/02/09 07:59:10;;;;;;;13.70;7.70;;;3.80;99.90;;;;;;5056554;28;20075;-73
2024/02/09 08:01:36;;;;;;;15.10;7.85;;;4.40;99.90;;;;;;5074244;28;20040;-74
2024/02/09 08:04:02;;;;;;;15.30;7.35;;;4.20;99.90;;;;;;5074179;28;20044;-75
2024/02/09 08:06:28;;;;;;;15.02;7.55;;;4.40;99.90;;;;;;5056320;28;20041;-75
2024/02/09 08:08:54;;;;;;;15.20;7.95;;;4.20;99.90;;;;;;5074140;28;20166;-75
2024/02/09 08:11:24;;;;;;;16.42;7.35;;;4.50;99.90;;;;;;5056312;28;20395;-74
2024/02/09 08:13:53;;;;;;;14.60;8.65;;;4.50;99.90;;;;;;5056170;28;20119;-74
2024/02/09 08:16:22;;;;;;;16.35;8.43;;;4.30;99.90;;;;;;5074090;28;20055;-74
2024/02/09 08:18:49;;;;;;;15.52;7.97;;;4.50;99.90;;;;;;5055823;28;20037;-74
2024/02/09 08:21:17;;;;;;;18.63;9.10;;;4.10;99.90;;;;;;5038989;28;20036;-74
2024/02/09 08:23:43;;;;;;;17.95;8.82;;;4.10;99.90;;;;;;5055919;28;20040;-74
2024/02/09 08:26:10;;;;;;;15.50;8.52;;;4.20;99.90;;;;;;5073659;28;20051;-74
2024/02/09 08:28:43;;;;;;;19.05;9.20;;;4.50;99.90;;;;;;5073919;28;20041;-74
2024/02/09 08:31:13;;;;;;;19.20;9.77;;;4.30;99.90;;;;;;5073005;28;20040;-74
2024/02/09 08:33:39;;;;;;;17.20;8.75;;;4.50;99.90;;;;;;5054857;28;20032;-74
2024/02/09 08:36:06;;;;;;;18.30;9.25;;;4.90;99.90;;;;;;5055715;28;20181;-75
2024/02/09 08:38:32;;;;;;;19.90;9.77;;;4.80;99.90;;;;;;5055445;28;20040;-75
2024/02/09 08:40:58;;;;;;;23.73;11.80;;;4.90;99.90;;;;;;5055440;28;20098;-75
2024/02/09 08:43:24;;;;;;;21.35;10.27;;;4.70;99.90;;;;;;5055816;28;20076;-75
2024/02/09 08:45:50;;;;;;;19.38;10.68;;;4.60;99.90;;;;;;5054462;28;20079;-75
2024/02/09 08:48:16;;;;;;;21.02;9.82;;;4.90;99.90;;;;;;5055546;28;20480;-75
2024/02/09 08:50:44;;;;;;;21.63;10.70;;;4.90;99.90;;;;;;5055089;28;20495;-75
2024/02/09 08:53:10;;;;;;;18.77;9.85;;;4.60;99.90;;;;;;5054828;28;20076;-75
2024/02/09 08:55:35;;;;;;;25.58;11.48;;;5.20;99.90;;;;;;5070492;28;20095;-75
2024/02/09 08:58:04;;;;;;;23.30;11.05;;;4.90;99.90;;;;;;5055480;28;20373;-75
2024/02/09 09:00:30;;;;;;;24.20;11.05;;;4.90;99.90;;;;;;5055128;28;20587;-75
2024/02/09 09:02:57;;;;;;;24.40;10.52;;;5.30;99.90;;;;;;5055163;28;20123;-75
2024/02/09 09:05:23;;;;;;;22.02;10.75;;;5.30;99.90;;;;;;5055129;28;20043;-75
2024/02/09 09:07:48;;;;;;;23.70;11.20;;;4.90;99.90;;;;;;5038505;28;20032;-75
2024/02/09 09:10:14;;;;;;;22.20;11.68;;;5.30;99.90;;;;;;5073065;28;20085;-73
2024/02/09 09:12:40;;;;;;;26.77;11.60;;;4.90;99.90;;;;;;5055100;28;20029;-74
2024/02/09 09:15:06;;;;;;;27.80;13.13;;;5.40;99.90;;;;;;5073072;28;20515;-74
2024/02/09 09:17:32;;;;;;;26.35;12.88;;;5.40;99.90;;;;;;5054764;28;20404;-74
2024/02/09 09:19:58;;;;;;;24.67;12.52;;;5.20;99.90;;;;;;5072507;28;20385;-74
2024/02/09 09:22:24;;;;;;;21.92;11.43;;;5.50;99.90;;;;;;5054458;28;20063;-74
2024/02/09 09:24:50;;;;;;;25.17;12.57;;;5.50;99.90;;;;;;5038261;28;20451;-75
2024/02/09 09:27:16;;;;;;;26.20;13.35;;;5.60;99.90;;;;;;5054802;28;20093;-75
2024/02/09 09:29:42;;;;;;;28.33;13.68;;;5.60;99.90;;;;;;5054210;28;20047;-75
2024/02/09 09:32:07;;;;;;;26.70;12.77;;;5.70;99.90;;;;;;5072528;28;20415;-76
2024/02/09 09:34:33;;;;;;;33.22;14.23;;;5.70;99.90;;;;;;5072254;28;20032;-75
2024/02/09 09:36:59;;;;;;;30.38;13.90;;;5.60;99.90;;;;;;5072302;28;20036;-75
2024/02/09 09:39:25;;;;;;;29.60;13.25;;;5.90;99.90;;;;;;5054504;28;20048;-76
2024/02/09 09:41:53;;;;;;;30.17;13.57;;;5.70;99.90;;;;;;5054267;28;20048;-75
2024/02/09 09:44:25;;;;;;;26.92;14.57;;;6.00;99.90;;;;;;5054225;28;20055;-75
2024/02/09 09:46:52;;;;;;;27.63;13.50;;;5.60;99.90;;;;;;5054025;28;20470;-75
2024/02/09 09:49:19;;;;;;;30.17;14.27;;;5.70;99.90;;;;;;5071488;28;20033;-75
2024/02/09 09:51:50;;;;;;;35.25;15.25;;;6.00;99.90;;;;;;5053698;28;20047;-74
2024/02/09 09:54:21;;;;;;;32.08;15.80;;;5.80;99.90;;;;;;5068360;28;20036;-76
2024/02/09 09:56:49;;;;;;;31.27;16.40;;;6.00;99.90;;;;;;5054148;28;20048;-74
2024/02/09 09:59:17;;;;;;;30.90;14.88;;;6.30;99.90;;;;;;5053334;28;20036;-74
2024/02/09 10:01:46;;;;;;;37.60;16.00;;;6.30;99.90;;;;;;5053286;28;20051;-74
2024/02/09 10:04:11;;;;;;;35.83;17.15;;;6.00;99.90;;;;;;5069127;28;20044;-74
2024/02/09 10:06:37;;;;;;;38.03;17.88;;;6.20;99.90;;;;;;5053176;28;20414;-75
2024/02/09 10:09:04;;;;;;;37.50;17.30;;;6.40;99.90;;;;;;5053127;28;20021;-75
2024/02/09 10:11:32;;;;;;;42.03;18.33;;;6.70;99.90;;;;;;5052786;28;20075;-75
2024/02/09 10:13:57;;;;;;;40.28;17.25;;;6.80;99.90;;;;;;5053102;28;20037;-75
2024/02/09 10:16:23;;;;;;;36.47;17.48;;;7.00;99.90;;;;;;5052913;28;20035;-75
2024/02/09 10:18:49;;;;;;;40.03;18.10;;;7.00;99.90;;;;;;5053190;28;20036;-75
2024/02/09 10:21:14;;;;;;;39.13;16.92;;;6.80;99.90;;;;;;5053572;28;20044;-75
2024/02/09 10:23:40;;;;;;;38.92;17.83;;;7.10;99.90;;;;;;5071832;28;20032;-75
2024/02/09 10:26:06;;;;;;;42.85;16.60;;;7.00;99.90;;;;;;5053538;28;20040;-75
2024/02/09 10:28:33;;;;;;;39.92;16.95;;;7.00;99.90;;;;;;5071490;28;20040;-75
2024/02/09 10:30:59;;;;;;;34.13;14.90;;;7.20;99.90;;;;;;5071310;28;20051;-76
2024/02/09 10:33:26;;;;;;;33.45;15.52;;;7.20;99.90;;;;;;5071759;28;20090;-75
2024/02/09 10:36:01;;;;;;;38.33;14.98;;;7.30;99.90;;;;;;5053550;28;20044;-75
2024/02/09 10:38:27;;;;;;;32.10;13.52;;;7.30;99.90;;;;;;5037099;28;20048;-75
2024/02/09 10:40:54;;;;;;;27.30;12.52;;;7.60;99.90;;;;;;5053213;28;20523;-75
2024/02/09 10:43:23;;;;;;;26.00;12.57;;;7.80;99.90;;;;;;5071467;28;20484;-75
2024/02/09 10:45:50;;;;;;;23.02;11.60;;;7.80;99.90;;;;;;5054525;28;20048;-77
2024/02/09 10:48:22;;;;;;;19.33;9.02;;;7.90;99.90;;;;;;5053894;28;20051;-77
2024/02/09 10:50:53;;;;;;;16.15;9.10;;;7.90;99.90;;;;;;5053284;28;20036;-77
2024/02/09 10:53:24;;;;;;;16.17;7.63;;;8.20;99.90;;;;;;5036903;28;20082;-76
2024/02/09 10:56:02;;;;;;;15.00;7.70;;;8.10;99.90;;;;;;5053700;28;20040;-75
2024/02/09 10:58:34;;;;;;;13.63;7.22;;;8.10;99.90;;;;;;5053384;28;20055;-76
2024/02/09 11:01:05;;;;;;;17.70;8.13;;;8.50;99.90;;;;;;5070538;28;20032;-76
2024/02/09 11:03:38;;;;;;;18.80;7.40;;;8.30;99.90;;;;;;5053595;28;20404;-74
2024/02/09 11:06:04;;;;;;;17.48;7.60;;;8.50;99.90;;;;;;5070513;28;20462;-75
2024/02/09 11:08:33;;;;;;;21.23;8.70;;;8.50;99.90;;;;;;5055079;28;20041;-77
2024/02/09 11:11:03;;;;;;;13.60;7.63;;;8.80;99.90;;;;;;5075221;28;20045;-75
2024/02/09 11:13:30;;;;;;;18.48;7.35;;;8.40;99.90;;;;;;5057517;28;20438;-75
2024/02/09 11:16:01;;;;;;;21.25;8.85;;;8.50;99.90;;;;;;5057015;28;20135;-75
2024/02/09 11:18:35;;;;;;;21.33;9.27;;;8.50;99.90;;;;;;5057054;28;20052;-76
2024/02/09 11:21:11;;;;;;;13.00;7.22;;;8.70;99.90;;;;;;5056623;28;20166;-75
2024/02/09 11:23:40;;;;;;;17.15;7.90;;;9.00;99.90;;;;;;5057033;28;20055;-75
2024/02/09 11:26:11;;;;;;;20.30;8.25;;;9.00;99.90;;;;;;5057013;28;20127;-75
2024/02/09 11:28:37;;;;;;;16.02;8.40;;;8.80;99.90;;;;;;5074948;28;20044;-75
2024/02/09 11:31:11;;;;;;;18.50;9.50;;;8.90;99.90;;;;;;5056212;28;20376;-75
2024/02/09 11:33:38;;;;;;;17.95;8.38;;;9.00;99.90;;;;;;5048350;28;20041;-75
2024/02/09 11:36:04;;;;;;;23.52;9.77;;;9.10;99.90;;;;;;5056722;28;20041;-76
2024/02/09 11:38:30;;;;;;;17.35;8.63;;;9.20;99.90;;;;;;5056592;28;20549;-76
2024/02/09 11:40:58;;;;;;;18.75;9.07;;;9.50;99.90;;;;;;5056449;28;20041;-76
2024/02/09 11:43:25;;;;;;;19.08;9.07;;;9.50;99.90;;;;;;5053621;28;20028;-76
2024/02/09 11:45:53;;;;;;;13.88;8.38;;;9.60;99.90;;;;;;5050708;28;20408;-75
2024/02/09 11:48:39;;;;;;;21.58;10.82;;;9.60;99.90;;;;;;5031750;28;20067;-75
2024/02/09 11:51:04;;;;;;;15.02;7.72;;;9.90;99.90;;;;;;5056068;28;20123;-75
2024/02/09 11:53:30;;;;;;;16.55;8.30;;;9.70;99.90;;;;;;5056556;28;20467;-76
2024/02/09 11:55:56;;;;;;;19.02;9.15;;;9.90;99.90;;;;;;5055891;28;20043;-75
2024/02/09 11:58:22;;;;;;;20.48;8.75;;;9.80;99.90;;;;;;5055731;28;20488;-75
2024/02/09 12:00:50;;;;;;;18.83;10.40;;;9.90;99.90;;;;;;5038760;28;20036;-76
2024/02/09 12:03:16;;;;;;;17.58;9.02;;;9.90;99.90;;;;;;5074176;28;20048;-76
2024/02/09 12:05:46;;;;;;;21.20;9.43;;;10.00;99.90;;;;;;5056251;28;20043;-76
2024/02/09 12:08:16;;;;;;;16.80;8.50;;;10.20;99.90;;;;;;5039553;28;20037;-76
2024/02/09 12:10:43;;;;;;;12.93;8.02;;;10.30;99.90;;;;;;5073980;28;20036;-77
2024/02/09 12:13:08;;;;;;;18.92;9.10;;;9.90;99.90;;;;;;5055806;28;20441;-76
2024/02/09 12:15:34;;;;;;;16.92;8.38;;;10.40;99.90;;;;;;5056047;28;20029;-77
2024/02/09 12:18:01;;;;;;;16.52;8.95;;;10.40;99.90;;;;;;5038614;28;20029;-76
2024/02/09 12:20:27;;;;;;;19.33;8.40;;;10.20;99.90;;;;;;5054943;28;20032;-76
2024/02/09 12:22:55;;;;;;;15.20;7.10;;;10.50;99.90;;;;;;5055102;28;20037;-77
2024/02/09 12:25:22;;;;;;;15.23;7.80;;;10.60;99.90;;;;;;5054626;28;20072;-76
2024/02/09 12:27:55;;;;;;;21.52;8.48;;;10.30;99.90;;;;;;5053466;28;20495;-77
2024/02/09 12:30:20;;;;;;;15.00;8.35;;;10.20;99.90;;;;;;5044122;28;20037;-77
2024/02/09 12:32:46;;;;;;;13.63;7.90;;;10.30;99.90;;;;;;5053985;28;20040;-76
2024/02/09 12:35:11;;;;;;;15.80;7.30;;;10.50;99.90;;;;;;5059118;28;20037;-77
2024/02/09 12:37:37;;;;;;;13.20;6.82;;;10.30;99.90;;;;;;5054997;28;20032;-76
2024/02/09 12:40:06;;;;;;;13.27;7.97;;;10.60;99.90;;;;;;5072566;28;20032;-77
2024/02/09 12:42:32;;;;;;;10.88;6.88;;;10.20;99.90;;;;;;5073965;28;20048;-77
2024/02/09 12:45:02;;;;;;;12.93;7.80;;;10.40;99.90;;;;;;5073684;28;20042;-77
2024/02/09 12:47:29;;;;;;;16.20;7.22;;;10.70;99.90;;;;;;5038756;28;20542;-77
2024/02/09 12:49:57;;;;;;;15.65;7.47;;;10.60;99.90;;;;;;5055902;28;20076;-77
2024/02/09 12:52:26;;;;;;;15.43;8.35;;;10.70;99.90;;;;;;5055630;28;20082;-76
2024/02/09 12:54:55;;;;;;;13.40;7.47;;;10.90;99.90;;;;;;5055327;28;20091;-76
2024/02/09 12:57:22;;;;;;;12.63;7.47;;;10.60;99.90;;;;;;5055349;28;20064;-76
2024/02/09 12:59:48;;;;;;;11.73;7.38;;;10.60;99.90;;;;;;5038791;28;20040;-75
2024/02/09 13:02:15;;;;;;;13.60;8.07;;;10.60;99.90;;;;;;5073329;28;20041;-76
2024/02/09 13:04:41;;;;;;;10.75;7.63;;;10.80;99.90;;;;;;5038561;28;20411;-76
2024/02/09 13:07:07;;;;;;;15.55;6.97;;;10.80;99.90;;;;;;5038382;28;20040;-77
2024/02/09 13:09:33;;;;;;;12.85;7.47;;;10.70;99.90;;;;;;5074130;28;20036;-77
2024/02/09 13:11:59;;;;;;;16.58;6.95;;;10.70;99.90;;;;;;5056310;28;20051;-77
2024/02/09 13:14:25;;;;;;;13.88;7.85;;;10.60;99.90;;;;;;5073492;28;20032;-76
2024/02/09 13:16:51;;;;;;;11.32;6.80;;;10.80;99.90;;;;;;5055355;28;20411;-75
2024/02/09 13:19:18;;;;;;;13.00;6.00;;;10.60;99.90;;;;;;5072921;28;20036;-76
2024/02/09 13:21:45;;;;;;;11.68;7.20;;;10.80;99.90;;;;;;5054433;28;20043;-76
2024/02/09 13:24:12;;;;;;;14.50;6.75;;;10.70;99.90;;;;;;5072995;28;20045;-77
2024/02/09 13:26:39;;;;;;;14.32;7.35;;;10.60;99.90;;;;;;5038034;28;20040;-77
2024/02/09 13:29:05;;;;;;;12.38;6.82;;;10.90;99.90;;;;;;5054547;28;20049;-76
2024/02/09 13:31:34;;;;;;;14.38;6.30;;;10.60;99.90;;;;;;5053736;28;20047;-76
2024/02/09 13:34:00;;;;;;;15.43;7.68;;;10.80;99.90;;;;;;5054498;28;20188;-76
2024/02/09 13:36:25;;;;;;;12.63;6.43;;;10.50;99.90;;;;;;5054454;28;20052;-76
2024/02/09 13:38:51;;;;;;;11.48;6.63;;;10.50;99.90;;;;;;5054429;28;20040;-76
2024/02/09 13:41:18;;;;;;;11.00;6.60;;;10.60;99.90;;;;;;5054214;28;20040;-77
2024/02/09 13:43:44;;;;;;;10.63;6.75;;;10.70;99.90;;;;;;5054660;28;20051;-76
2024/02/09 13:46:09;;;;;;;13.43;6.45;;;10.30;99.90;;;;;;5072236;28;20032;-76
2024/02/09 13:48:35;;;;;;;12.98;7.10;;;10.30;99.90;;;;;;5072252;28;20033;-76
2024/02/09 13:51:01;;;;;;;11.40;7.07;;;10.40;99.90;;;;;;5071997;28;20119;-77
2024/02/09 13:53:27;;;;;;;12.95;7.28;;;10.70;99.90;;;;;;5037154;28;20046;-76
2024/02/09 13:55:53;;;;;;;10.80;6.90;;;10.80;99.90;;;;;;5071956;28;20033;-76
2024/02/09 13:58:19;;;;;;;12.60;6.60;;;10.40;99.90;;;;;;5053596;28;20509;-76
2024/02/09 14:00:46;;;;;;;17.70;8.05;;;10.90;99.90;;;;;;5036023;28;20125;-76
2024/02/09 14:03:11;;;;;;;11.15;6.80;;;10.60;99.90;;;;;;5071560;28;20415;-75
2024/02/09 14:05:37;;;;;;;13.10;7.18;;;10.80;99.90;;;;;;5053737;28;20050;-76
2024/02/09 14:08:04;;;;;;;14.77;6.70;;;10.60;99.90;;;;;;5035527;28;20037;-76
2024/02/09 14:10:31;;;;;;;10.18;5.90;;;10.70;99.90;;;;;;5048877;28;20123;-76
2024/02/09 14:12:57;;;;;;;10.55;6.00;;;10.70;99.90;;;;;;5053503;28;20033;-76
2024/02/09 14:15:24;;;;;;;13.25;6.97;;;10.70;99.90;;;;;;5053426;28;20041;-77
2024/02/09 14:17:50;;;;;;;12.05;6.78;;;10.90;99.90;;;;;;5049383;28;20123;-76
2024/02/09 14:20:15;;;;;;;12.40;6.18;;;10.90;99.90;;;;;;5034544;28;20119;-74
2024/02/09 14:22:42;;;;;;;12.38;6.90;;;11.00;99.90;;;;;;5053601;28;20040;-75
2024/02/09 14:25:09;;;;;;;13.00;6.38;;;11.10;99.90;;;;;;5053718;28;20044;-76
2024/02/09 14:27:37;;;;;;;11.02;6.60;;;11.10;99.90;;;;;;5070677;28;20044;-76
2024/02/09 14:30:03;;;;;;;12.55;7.82;;;10.90;99.90;;;;;;5071165;28;20108;-76
2024/02/09 14:32:29;;;;;;;10.98;6.47;;;10.90;99.90;;;;;;5071104;28;20478;-76